createdAt,value
2023-08-11T00:01:09.413Z,6.22
2023-08-11T00:03:37.265Z,4.78
2023-08-11T00:06:11.729Z,5.10
2023-08-11T00:08:40.830Z,5.25
2023-08-11T00:11:09.405Z,5.22
2023-08-11T00:13:37.205Z,5.35
2023-08-11T00:16:08.441Z,3.88
2023-08-11T00:18:36.540Z,4.60
2023-08-11T00:21:04.204Z,4.68
2023-08-11T00:23:31.461Z,4.90
2023-08-11T00:26:01.797Z,4.05
2023-08-11T00:28:29.242Z,3.72
2023-08-11T00:30:56.643Z,4.72
2023-08-11T00:33:24.128Z,3.70
2023-08-11T00:35:54.313Z,4.75
2023-08-11T00:38:25.441Z,4.55
2023-08-11T00:40:53.203Z,4.40
2023-08-11T00:43:20.507Z,3.58
2023-08-11T00:45:50.527Z,4.43
2023-08-11T00:48:17.897Z,6.28
2023-08-11T00:50:48.040Z,5.30
2023-08-11T00:53:18.408Z,5.30
2023-08-11T00:55:48.791Z,5.93
2023-08-11T00:58:16.090Z,5.30
2023-08-11T01:00:48.377Z,4.10
2023-08-11T01:03:15.778Z,5.20
2023-08-11T01:05:49.986Z,4.22
2023-08-11T01:08:29.502Z,5.88
2023-08-11T01:11:08.501Z,4.25
2023-08-11T01:13:40.783Z,6.00
2023-08-11T01:16:09.509Z,6.60
2023-08-11T01:18:36.870Z,7.10
2023-08-11T01:21:08.008Z,4.97
2023-08-11T01:23:35.658Z,6.93
2023-08-11T01:26:02.960Z,7.70
2023-08-11T01:28:30.250Z,6.97
2023-08-11T01:30:57.683Z,9.05
2023-08-11T01:33:24.899Z,6.10
2023-08-11T01:35:52.160Z,6.15
2023-08-11T01:38:19.380Z,5.95
2023-08-11T01:40:48.239Z,6.45
2023-08-11T01:43:16.503Z,4.63
2023-08-11T01:45:49.512Z,5.20
2023-08-11T01:48:18.576Z,4.25
2023-08-11T01:50:46.127Z,5.82
2023-08-11T01:53:13.784Z,5.15
2023-08-11T01:55:42.052Z,5.07
2023-08-11T01:58:09.298Z,5.47
2023-08-11T02:00:37.800Z,5.33
2023-08-11T02:03:05.234Z,5.88
2023-08-11T02:05:32.680Z,6.55
2023-08-11T02:08:01.411Z,7.85
2023-08-11T02:10:28.663Z,10.10
2023-08-11T02:12:55.975Z,9.57
2023-08-11T02:15:23.315Z,10.50
2023-08-11T02:17:50.606Z,4.80
2023-08-11T02:20:25.117Z,5.57
2023-08-11T02:22:53.833Z,9.52
2023-08-11T02:25:21.528Z,5.88
2023-08-11T02:27:48.814Z,6.90
2023-08-11T02:30:16.219Z,7.43
2023-08-11T02:32:46.949Z,4.38
2023-08-11T02:35:14.569Z,5.63
2023-08-11T02:37:42.483Z,4.20
2023-08-11T02:40:10.598Z,5.40
2023-08-11T02:42:44.484Z,4.30
2023-08-11T02:45:12.639Z,5.90
2023-08-11T02:47:41.424Z,6.93
2023-08-11T02:50:10.100Z,4.97
2023-08-11T02:52:39.351Z,4.63
2023-08-11T02:55:07.305Z,7.67
2023-08-11T02:57:35.088Z,4.63
2023-08-11T03:00:05.296Z,5.17
2023-08-11T03:02:35.786Z,4.37
2023-08-11T03:05:09.159Z,8.27
2023-08-11T03:07:36.748Z,5.23
2023-08-11T03:10:04.692Z,4.05
2023-08-11T03:12:32.099Z,5.97
2023-08-11T03:14:59.394Z,4.33
2023-08-11T03:17:29.363Z,6.20
2023-08-11T03:19:56.710Z,4.87
2023-08-11T03:22:25.245Z,4.30
2023-08-11T03:24:52.821Z,5.45
2023-08-11T03:27:20.168Z,5.03
2023-08-11T03:29:47.767Z,7.20
2023-08-11T03:32:15.872Z,6.90
2023-08-11T03:34:43.249Z,6.47
2023-08-11T03:37:10.540Z,8.37
2023-08-11T03:39:37.968Z,6.60
2023-08-11T03:42:05.498Z,8.73
2023-08-11T03:44:33.614Z,7.57
2023-08-11T03:47:01.432Z,8.33
2023-08-11T03:49:28.963Z,9.50
2023-08-11T03:51:56.362Z,7.07
2023-08-11T03:54:31.856Z,6.57
2023-08-11T03:57:07.929Z,5.97
2023-08-11T03:59:35.743Z,6.70
2023-08-11T04:02:03.161Z,6.10
2023-08-11T04:04:31.152Z,5.13
2023-08-11T04:06:59.730Z,5.60
2023-08-11T04:09:27.367Z,4.03
2023-08-11T04:11:54.639Z,4.90
2023-08-11T04:14:21.908Z,5.00
2023-08-11T04:16:49.169Z,5.00
2023-08-11T04:19:16.426Z,5.53
2023-08-11T04:21:43.646Z,4.10
2023-08-11T04:24:10.920Z,4.87
2023-08-11T04:26:38.190Z,6.67
2023-08-11T04:29:05.930Z,5.27
2023-08-11T04:31:33.674Z,4.27
2023-08-11T04:34:00.863Z,6.40
2023-08-11T04:36:28.994Z,3.73
2023-08-11T04:38:56.591Z,4.67
2023-08-11T04:41:24.095Z,4.30
2023-08-11T04:43:51.930Z,6.47
2023-08-11T04:46:19.490Z,6.03
2023-08-11T04:48:46.807Z,4.63
2023-08-11T04:51:16.200Z,7.60
2023-08-11T04:53:44.228Z,4.40
2023-08-11T04:56:11.687Z,5.07
2023-08-11T04:58:41.073Z,5.80
2023-08-11T05:01:08.712Z,4.43
2023-08-11T05:03:36.029Z,4.40
2023-08-11T05:06:06.715Z,3.80
2023-08-11T05:08:36.131Z,6.15
2023-08-11T05:11:04.655Z,4.87
2023-08-11T05:13:32.410Z,6.07
2023-08-11T05:15:59.699Z,6.13
2023-08-11T05:18:37.883Z,8.40
2023-08-11T05:21:10.700Z,8.35
2023-08-11T05:23:38.283Z,9.95
2023-08-11T05:26:05.788Z,8.43
2023-08-11T05:28:33.022Z,18.05
2023-08-11T05:31:02.444Z,9.68
2023-08-11T05:33:29.869Z,6.35
2023-08-11T05:35:57.188Z,7.47
2023-08-11T05:38:26.700Z,7.75
2023-08-11T05:40:54.085Z,9.50
2023-08-11T05:43:21.795Z,5.60
2023-08-11T05:45:50.004Z,5.95
2023-08-11T05:48:17.766Z,7.80
2023-08-11T05:50:46.512Z,4.20
2023-08-11T05:53:13.907Z,4.40
2023-08-11T05:55:41.494Z,2.97
2023-08-11T05:58:08.777Z,5.30
2023-08-11T06:00:36.376Z,3.42
2023-08-11T06:03:03.824Z,5.28
2023-08-11T06:05:31.553Z,3.97
2023-08-11T06:08:05.918Z,4.38
2023-08-11T06:10:34.551Z,3.42
2023-08-11T06:13:02.211Z,3.88
2023-08-11T06:15:31.462Z,3.92
2023-08-11T06:17:59.412Z,3.63
2023-08-11T06:20:40.305Z,3.53
2023-08-11T06:23:08.722Z,3.80
2023-08-11T06:25:38.731Z,3.60
2023-08-11T06:28:06.269Z,3.78
2023-08-11T06:30:33.830Z,4.45
2023-08-11T06:33:01.430Z,3.88
2023-08-11T06:35:28.952Z,4.03
2023-08-11T06:37:56.233Z,4.35
2023-08-11T06:40:23.619Z,3.95
2023-08-11T06:42:50.939Z,4.65
2023-08-11T06:45:18.256Z,4.25
2023-08-11T06:47:45.841Z,4.90
2023-08-11T06:50:14.396Z,3.85
2023-08-11T06:52:41.949Z,3.70
2023-08-11T06:55:09.351Z,3.65
2023-08-11T06:57:38.548Z,3.88
2023-08-11T07:00:08.792Z,3.50
2023-08-11T07:02:36.677Z,3.78
2023-08-11T07:05:04.617Z,3.50
2023-08-11T07:07:31.876Z,3.58
2023-08-11T07:10:03.358Z,3.63
2023-08-11T07:12:31.449Z,3.67
2023-08-11T07:14:58.868Z,3.85
2023-08-11T07:17:26.244Z,3.60
2023-08-11T07:19:53.572Z,3.95
2023-08-11T07:22:20.809Z,3.60
2023-08-11T07:24:48.163Z,4.50
2023-08-11T07:27:18.261Z,3.75
2023-08-11T07:29:46.763Z,3.78
2023-08-11T07:32:14.024Z,3.50
2023-08-11T07:34:41.996Z,4.35
2023-08-11T07:37:09.654Z,4.57
2023-08-11T07:39:37.345Z,5.03
2023-08-11T07:42:04.684Z,4.00
2023-08-11T07:44:32.523Z,3.53
2023-08-11T07:47:00.002Z,3.70
2023-08-11T07:49:27.672Z,5.22
2023-08-11T07:51:55.615Z,3.45
2023-08-11T07:54:23.081Z,3.53
2023-08-11T07:56:50.578Z,3.50
2023-08-11T07:59:17.983Z,4.85
2023-08-11T08:01:45.309Z,5.03
2023-08-11T08:04:12.639Z,3.38
2023-08-11T08:06:47.146Z,4.82
2023-08-11T08:09:15.997Z,4.05
2023-08-11T08:11:44.896Z,5.75
2023-08-11T08:14:12.816Z,3.85
2023-08-11T08:16:43.515Z,3.60
2023-08-11T08:19:12.322Z,3.92
2023-08-11T08:21:40.205Z,3.55
2023-08-11T08:24:09.197Z,3.13
2023-08-11T08:26:37.405Z,3.30
2023-08-11T08:29:05.258Z,4.10
2023-08-11T08:31:33.361Z,3.47
2023-08-11T08:34:00.985Z,3.13
2023-08-11T08:36:28.499Z,5.18
2023-08-11T08:38:55.810Z,3.53
2023-08-11T08:41:29.085Z,2.95
2023-08-11T08:43:57.262Z,2.95
2023-08-11T08:46:29.943Z,4.85
2023-08-11T08:49:03.270Z,3.20
2023-08-11T08:51:31.496Z,3.58
2023-08-11T08:53:59.496Z,2.45
2023-08-11T08:56:27.214Z,2.22
2023-08-11T08:58:54.572Z,2.90
2023-08-11T09:01:23.067Z,3.30
2023-08-11T09:03:50.811Z,2.53
2023-08-11T09:06:18.189Z,3.03
2023-08-11T09:08:46.674Z,2.83
2023-08-11T09:11:14.174Z,2.55
2023-08-11T09:13:41.544Z,2.47
2023-08-11T09:16:09.030Z,2.95
2023-08-11T09:18:36.281Z,2.90
2023-08-11T09:21:03.779Z,3.30
2023-08-11T09:23:31.092Z,2.50
2023-08-11T09:25:58.551Z,3.75
2023-08-11T09:28:26.003Z,3.60
2023-08-11T09:30:53.620Z,2.60
2023-08-11T09:33:23.236Z,2.72
2023-08-11T09:35:50.621Z,3.65
2023-08-11T09:38:17.868Z,2.50
2023-08-11T09:40:45.116Z,2.20
2023-08-11T09:43:12.632Z,2.83
2023-08-11T09:45:40.238Z,2.58
2023-08-11T09:48:08.263Z,2.53
2023-08-11T09:50:36.352Z,2.40
2023-08-11T09:53:05.980Z,2.83
2023-08-11T09:55:34.041Z,2.67
2023-08-11T09:58:03.524Z,2.50
2023-08-11T10:00:32.227Z,2.63
2023-08-11T10:03:12.849Z,3.42
2023-08-11T10:05:44.738Z,2.63
2023-08-11T10:08:19.658Z,3.25
2023-08-11T10:10:47.378Z,2.50
2023-08-11T10:13:19.326Z,2.80
2023-08-11T10:15:50.133Z,2.72
2023-08-11T10:18:21.595Z,2.38
2023-08-11T10:20:51.480Z,2.63
2023-08-11T10:23:21.600Z,2.67
2023-08-11T10:25:49.194Z,2.75
2023-08-11T10:28:17.547Z,2.60
2023-08-11T10:30:45.032Z,2.65
2023-08-11T10:33:12.746Z,2.42
2023-08-11T10:35:49.162Z,2.58
2023-08-11T10:38:34.850Z,2.60
2023-08-11T10:41:06.344Z,2.65
2023-08-11T10:43:44.435Z,3.72
2023-08-11T10:46:24.742Z,2.53
2023-08-11T10:48:52.728Z,2.55
2023-08-11T10:51:30.834Z,2.65
2023-08-11T10:54:13.065Z,3.00
2023-08-11T10:56:44.370Z,2.65
2023-08-11T10:59:18.827Z,2.50
2023-08-11T11:01:47.427Z,2.35
2023-08-11T11:04:15.290Z,2.50
2023-08-11T11:06:43.592Z,3.03
2023-08-11T11:09:10.904Z,2.58
2023-08-11T11:11:38.700Z,3.28
2023-08-11T11:14:06.832Z,2.20
2023-08-11T11:16:35.288Z,3.20
2023-08-11T11:19:04.743Z,2.53
2023-08-11T11:21:32.247Z,2.80
2023-08-11T11:23:59.585Z,2.88
2023-08-11T11:26:26.864Z,2.40
2023-08-11T11:28:56.273Z,2.63
2023-08-11T11:31:25.127Z,2.72
2023-08-11T11:33:52.720Z,3.45
2023-08-11T11:36:20.612Z,2.70
2023-08-11T11:38:48.742Z,3.33
2023-08-11T11:41:17.057Z,2.47
2023-08-11T11:43:45.200Z,2.65
2023-08-11T11:46:16.267Z,2.67
2023-08-11T11:48:44.533Z,2.97
2023-08-11T11:51:16.529Z,2.83
2023-08-11T11:53:44.307Z,3.13
2023-08-11T11:56:19.796Z,2.72
2023-08-11T11:58:48.638Z,2.60
2023-08-11T12:01:20.123Z,2.83
2023-08-11T12:03:51.677Z,2.85
2023-08-11T12:06:20.055Z,2.60
2023-08-11T12:08:48.130Z,2.67
2023-08-11T12:11:18.778Z,3.55
2023-08-11T12:13:47.909Z,2.60
2023-08-11T12:16:15.482Z,2.88
2023-08-11T12:18:43.254Z,2.45
2023-08-11T12:21:10.866Z,2.88
2023-08-11T12:23:38.198Z,2.50
2023-08-11T12:26:05.808Z,2.80
2023-08-11T12:28:33.780Z,3.75
2023-08-11T12:31:01.185Z,3.00
2023-08-11T12:33:29.067Z,2.80
2023-08-11T12:35:56.412Z,3.05
2023-08-11T12:38:23.697Z,3.40
2023-08-11T12:40:50.994Z,2.90
2023-08-11T12:43:18.553Z,2.72
2023-08-11T12:45:46.354Z,2.65
2023-08-11T12:48:14.390Z,4.32
2023-08-11T12:50:41.919Z,2.50
2023-08-11T12:53:09.442Z,2.40
2023-08-11T12:55:38.852Z,2.92
2023-08-11T12:58:06.634Z,2.67
2023-08-11T13:00:36.325Z,2.53
2023-08-11T13:03:03.870Z,3.15
2023-08-11T13:05:31.259Z,2.80
2023-08-11T13:07:58.548Z,2.45
2023-08-11T13:10:25.777Z,2.42
2023-08-11T13:12:53.071Z,2.78
2023-08-11T13:15:21.326Z,2.88
2023-08-11T13:17:49.377Z,2.40
2023-08-11T13:20:17.435Z,2.70
2023-08-11T13:22:44.893Z,2.55
2023-08-11T13:25:12.542Z,2.55
2023-08-11T13:27:40.073Z,2.70
2023-08-11T13:30:09.271Z,2.80
2023-08-11T13:32:37.121Z,3.08
2023-08-11T13:35:06.352Z,3.03
2023-08-11T13:37:33.698Z,2.50
2023-08-11T13:40:01.745Z,4.07
2023-08-11T13:42:32.805Z,3.85
2023-08-11T13:45:00.518Z,3.88
2023-08-11T13:47:30.444Z,2.70
2023-08-11T13:49:57.730Z,2.78
2023-08-11T13:52:25.124Z,3.20
2023-08-11T13:55:02.933Z,2.60
2023-08-11T13:57:30.503Z,2.20
2023-08-11T13:59:59.254Z,2.60
2023-08-11T14:02:27.897Z,4.00
2023-08-11T14:04:55.485Z,2.70
2023-08-11T14:07:31.636Z,2.50
2023-08-11T14:10:03.698Z,2.60
2023-08-11T14:12:31.051Z,2.75
2023-08-11T14:14:58.491Z,2.80
2023-08-11T14:17:26.073Z,2.92
2023-08-11T14:19:54.031Z,2.30
2023-08-11T14:22:21.216Z,2.60
2023-08-11T14:24:49.312Z,2.28
2023-08-11T14:27:17.503Z,2.50
2023-08-11T14:29:45.110Z,2.20
2023-08-11T14:32:24.521Z,2.30
2023-08-11T14:34:54.137Z,1.80
2023-08-11T14:37:24.397Z,2.05
2023-08-11T14:39:55.584Z,2.50
2023-08-11T14:42:25.822Z,3.47
2023-08-11T14:44:53.319Z,2.38
2023-08-11T14:47:20.624Z,2.05
2023-08-11T14:49:48.269Z,2.53
2023-08-11T14:52:16.465Z,2.58
2023-08-11T14:54:44.172Z,3.80
2023-08-11T14:57:14.311Z,3.00
2023-08-11T14:59:42.045Z,2.35
2023-08-11T15:02:10.575Z,2.22
2023-08-11T15:04:38.514Z,2.20
2023-08-11T15:07:06.107Z,4.22
2023-08-11T15:09:35.248Z,2.60
2023-08-11T15:12:02.753Z,4.15
2023-08-11T15:14:30.060Z,2.28
2023-08-11T15:16:58.289Z,2.30
2023-08-11T15:19:25.843Z,2.10
2023-08-11T15:21:53.221Z,2.50
2023-08-11T15:24:22.212Z,2.00
2023-08-11T15:26:49.445Z,2.70
2023-08-11T15:29:17.052Z,2.42
2023-08-11T15:31:44.879Z,2.92
2023-08-11T15:34:12.280Z,2.20
2023-08-11T15:36:41.668Z,3.55
2023-08-11T15:39:09.153Z,2.20
2023-08-11T15:41:36.763Z,3.65
2023-08-11T15:44:04.124Z,2.28
2023-08-11T15:46:31.841Z,2.28
2023-08-11T15:49:01.578Z,2.70
2023-08-11T15:51:29.075Z,2.60
2023-08-11T15:53:56.504Z,2.60
2023-08-11T15:56:23.893Z,4.15
2023-08-11T15:58:51.129Z,2.85
2023-08-11T16:01:19.057Z,2.83
2023-08-11T16:03:46.631Z,2.80
2023-08-11T16:06:14.850Z,2.95
2023-08-11T16:08:42.146Z,2.60
2023-08-11T16:11:09.540Z,2.33
2023-08-11T16:13:36.920Z,3.30
2023-08-11T16:16:04.297Z,2.95
2023-08-11T16:18:32.629Z,4.70
2023-08-11T16:21:04.575Z,2.95
2023-08-11T16:23:33.072Z,2.40
2023-08-11T16:26:00.506Z,2.22
2023-08-11T16:28:29.459Z,2.67
2023-08-11T16:30:57.409Z,3.45
2023-08-11T16:33:24.722Z,3.25
2023-08-11T16:35:51.973Z,2.40
2023-08-11T16:38:19.230Z,2.65
2023-08-11T16:40:46.977Z,2.45
2023-08-11T16:43:14.463Z,3.28
2023-08-11T16:45:41.996Z,2.88
2023-08-11T16:48:09.524Z,2.60
2023-08-11T16:50:38.593Z,3.75
2023-08-11T16:53:06.174Z,2.90
2023-08-11T16:55:33.583Z,3.85
2023-08-11T16:58:00.859Z,3.17
2023-08-11T17:00:28.198Z,2.47
2023-08-11T17:02:55.578Z,2.90
2023-08-11T17:05:23.395Z,5.82
2023-08-11T17:07:50.771Z,3.30
2023-08-11T17:10:18.139Z,2.20
2023-08-11T17:12:45.449Z,2.58
2023-08-11T17:15:13.164Z,4.85
2023-08-11T17:17:40.610Z,2.45
2023-08-11T17:20:10.648Z,2.42
2023-08-11T17:22:38.383Z,4.32
2023-08-11T17:25:06.114Z,2.83
2023-08-11T17:27:33.359Z,3.70
2023-08-11T17:30:00.739Z,3.38
2023-08-11T17:32:28.051Z,2.60
2023-08-11T17:34:58.382Z,3.42
2023-08-11T17:37:26.102Z,5.13
2023-08-11T17:39:54.192Z,3.28
2023-08-11T17:42:21.463Z,2.80
2023-08-11T17:44:48.829Z,2.67
2023-08-11T17:47:16.132Z,3.08
2023-08-11T17:49:43.498Z,2.50
2023-08-11T17:52:11.406Z,2.38
2023-08-11T17:54:39.448Z,2.60
2023-08-11T17:57:06.781Z,4.32
2023-08-11T17:59:34.696Z,2.47
2023-08-11T18:02:02.106Z,2.97
2023-08-11T18:04:29.472Z,3.42
2023-08-11T18:06:56.975Z,2.35
2023-08-11T18:09:24.342Z,2.88
2023-08-11T18:11:51.591Z,2.60
2023-08-11T18:14:18.981Z,3.80
2023-08-11T18:16:46.248Z,2.55
2023-08-11T18:19:13.831Z,2.50
2023-08-11T18:21:41.054Z,2.45
2023-08-11T18:24:08.663Z,3.85
2023-08-11T18:26:36.360Z,2.83
2023-08-11T18:29:04.194Z,3.20
2023-08-11T18:31:31.640Z,3.47
2023-08-11T18:34:01.284Z,2.83
2023-08-11T18:36:28.807Z,4.75
2023-08-11T18:38:56.276Z,3.13
2023-08-11T18:41:23.622Z,3.78
2023-08-11T18:43:51.009Z,4.22
2023-08-11T18:46:18.415Z,3.70
2023-08-11T18:48:45.910Z,3.92
2023-08-11T18:51:13.320Z,9.27
2023-08-11T18:53:40.524Z,6.07
2023-08-11T18:56:07.806Z,8.25
2023-08-11T18:58:35.175Z,5.50
2023-08-11T19:01:02.507Z,11.95
2023-08-11T19:03:29.929Z,8.40
2023-08-11T19:05:59.754Z,6.53
2023-08-11T19:08:27.282Z,5.10
2023-08-11T19:10:54.939Z,8.18
2023-08-11T19:13:22.486Z,4.00
2023-08-11T19:15:50.072Z,5.05
2023-08-11T19:18:17.811Z,6.95
2023-08-11T19:20:47.262Z,4.18
2023-08-11T19:23:14.650Z,4.65
2023-08-11T19:25:42.264Z,4.38
2023-08-11T19:28:12.096Z,5.35
2023-08-11T19:30:39.496Z,3.65
2023-08-11T19:33:06.927Z,5.07
2023-08-11T19:35:34.452Z,3.63
2023-08-11T19:38:02.087Z,5.47
2023-08-11T19:40:29.455Z,3.92
2023-08-11T19:42:56.746Z,5.32
2023-08-11T19:45:24.025Z,3.88
2023-08-11T19:47:51.340Z,4.72
2023-08-11T19:50:19.404Z,4.20
2023-08-11T19:52:46.836Z,9.45
2023-08-11T19:55:14.112Z,7.63
2023-08-11T19:57:42.158Z,6.05
2023-08-11T20:00:10.136Z,4.53
2023-08-11T20:02:37.736Z,5.45
2023-08-11T20:05:05.206Z,4.28
2023-08-11T20:07:32.613Z,8.00
2023-08-11T20:09:59.882Z,8.68
2023-08-11T20:12:27.137Z,7.18
2023-08-11T20:14:54.328Z,4.30
2023-08-11T20:17:21.689Z,8.57
2023-08-11T20:19:49.143Z,6.13
2023-08-11T20:22:16.536Z,6.07
2023-08-11T20:24:44.467Z,4.18
2023-08-11T20:27:12.336Z,5.35
2023-08-11T20:29:40.615Z,4.47
2023-08-11T20:32:08.381Z,4.88
2023-08-11T20:34:37.093Z,4.90
2023-08-11T20:37:04.918Z,5.68
2023-08-11T20:39:32.254Z,7.22
2023-08-11T20:42:00.767Z,5.70
2023-08-11T20:44:28.235Z,5.05
2023-08-11T20:46:55.780Z,4.35
2023-08-11T20:49:23.863Z,4.10
2023-08-11T20:51:53.670Z,6.95
2023-08-11T20:54:22.140Z,6.90
2023-08-11T20:56:49.761Z,6.40
2023-08-11T20:59:17.978Z,4.88
2023-08-11T21:01:45.448Z,7.28
2023-08-11T21:04:16.020Z,6.75
2023-08-11T21:06:43.509Z,4.72
2023-08-11T21:09:11.330Z,7.50
2023-08-11T21:11:38.698Z,5.10
2023-08-11T21:14:13.677Z,5.97
2023-08-11T21:16:41.679Z,6.85
2023-08-11T21:19:09.240Z,4.00
2023-08-11T21:21:37.028Z,4.43
2023-08-11T21:24:04.465Z,7.10
2023-08-11T21:26:32.457Z,5.53
2023-08-11T21:28:59.892Z,7.03
2023-08-11T21:31:27.614Z,7.28
2023-08-11T21:34:02.100Z,6.18
2023-08-11T21:36:29.529Z,6.72
2023-08-11T21:38:56.802Z,7.05
2023-08-11T21:41:24.056Z,7.65
2023-08-11T21:43:51.551Z,4.88
2023-08-11T21:46:19.247Z,8.00
2023-08-11T21:48:46.793Z,7.90
2023-08-11T21:51:14.141Z,4.40
2023-08-11T21:53:41.668Z,4.78
2023-08-11T21:56:09.489Z,6.70
2023-08-11T21:58:36.962Z,9.40
2023-08-11T22:01:04.629Z,4.40
2023-08-11T22:03:31.946Z,6.03
2023-08-11T22:05:59.696Z,4.55
2023-08-11T22:08:26.892Z,6.13
2023-08-11T22:10:54.272Z,6.88
2023-08-11T22:13:21.814Z,4.32
2023-08-11T22:15:50.983Z,5.38
2023-08-11T22:18:18.364Z,10.27
2023-08-11T22:20:46.018Z,8.90
2023-08-11T22:23:13.570Z,6.30
2023-08-11T22:25:40.937Z,6.72
2023-08-11T22:28:08.303Z,8.32
2023-08-11T22:30:38.045Z,6.00
2023-08-11T22:33:05.449Z,6.78
2023-08-11T22:35:33.469Z,6.88
2023-08-11T22:38:03.447Z,6.15
2023-08-11T22:40:30.704Z,5.97
2023-08-11T22:42:57.926Z,4.47
2023-08-11T22:45:25.285Z,7.82
2023-08-11T22:47:52.722Z,5.72
2023-08-11T22:50:20.272Z,6.22
2023-08-11T22:52:48.425Z,6.90
2023-08-11T22:55:15.964Z,6.95
2023-08-11T22:57:43.183Z,8.88
2023-08-11T23:00:11.985Z,6.60
2023-08-11T23:02:40.232Z,5.03
2023-08-11T23:05:09.307Z,5.88
2023-08-11T23:07:40.340Z,4.45
2023-08-11T23:10:08.393Z,4.80
2023-08-11T23:12:35.819Z,5.78
2023-08-11T23:15:04.298Z,4.90
2023-08-11T23:17:34.658Z,4.45
2023-08-11T23:20:02.265Z,8.18
2023-08-11T23:22:29.711Z,4.80
2023-08-11T23:24:57.116Z,9.45
2023-08-11T23:27:31.793Z,4.38
2023-08-11T23:29:59.612Z,4.95
2023-08-11T23:32:30.892Z,5.13
2023-08-11T23:34:58.475Z,4.93
2023-08-11T23:37:30.981Z,6.45
2023-08-11T23:39:58.804Z,5.15
2023-08-11T23:42:26.535Z,5.72
2023-08-11T23:44:53.848Z,5.35
2023-08-11T23:47:21.186Z,6.07
2023-08-11T23:49:48.511Z,9.25
2023-08-11T23:52:19.580Z,9.02
2023-08-11T23:54:56.079Z,4.30
2023-08-11T23:57:25.465Z,4.20
2023-08-11T23:59:52.940Z,5.53
